createdAt,value
2022-08-01T00:00:39.038Z,100131.59
2022-08-01T00:03:06.057Z,100130.41
2022-08-01T00:05:33.542Z,100129.19
2022-08-01T00:08:00.550Z,100122.78
2022-08-01T00:10:28.163Z,100125.19
2022-08-01T00:12:55.153Z,100120.78
2022-08-01T00:15:22.271Z,100119.97
2022-08-01T00:17:49.251Z,100113.13
2022-08-01T00:20:16.881Z,100116.34
2022-08-01T00:22:43.914Z,100107.53
2022-08-01T00:25:11.216Z,100110.34
2022-08-01T00:27:38.313Z,100102.72
2022-08-01T00:30:13.686Z,100101.13
2022-08-01T00:32:43.728Z,100095.13
2022-08-01T00:35:11.894Z,100099.53
2022-08-01T00:37:38.788Z,100088.72
2022-08-01T00:40:06.826Z,100089.91
2022-08-01T00:42:33.805Z,100097.94
2022-08-01T00:45:00.769Z,100089.53
2022-08-01T00:47:27.815Z,100087.13
2022-08-01T00:49:54.899Z,100086.31
2022-08-01T00:52:21.994Z,100085.13
2022-08-01T00:54:49.462Z,100095.91
2022-08-01T00:57:16.506Z,100094.31
2022-08-01T01:00:07.258Z,100090.72
2022-08-01T01:02:36.002Z,100094.28
2022-08-01T01:05:03.460Z,100091.50
2022-08-01T01:07:35.996Z,100093.91
2022-08-01T01:10:10.502Z,100093.09
2022-08-01T01:12:57.573Z,100092.72
2022-08-01T01:15:37.411Z,100087.50
2022-08-01T01:18:10.615Z,100079.84
2022-08-01T01:20:41.396Z,100079.47
2022-08-01T01:23:23.659Z,100080.66
2022-08-01T01:26:16.102Z,100082.28
2022-08-01T01:29:04.442Z,100083.84
2022-08-01T01:31:48.954Z,100087.00
2022-08-01T01:34:19.846Z,100084.59
2022-08-01T01:36:49.537Z,100080.22
2022-08-01T01:39:18.144Z,100078.56
2022-08-01T01:41:47.635Z,100076.56
2022-08-01T01:44:16.367Z,100078.19
2022-08-01T01:46:44.691Z,100077.38
2022-08-01T01:49:12.791Z,100088.56
2022-08-01T01:51:41.875Z,100076.94
2022-08-01T01:54:18.180Z,100074.16
2022-08-01T01:56:51.481Z,100074.13
2022-08-01T01:59:25.898Z,100079.72
2022-08-01T02:02:08.271Z,100070.53
2022-08-01T02:04:39.148Z,100073.38
2022-08-01T02:07:08.077Z,100070.97
2022-08-01T02:09:36.670Z,100076.94
2022-08-01T02:12:08.579Z,100074.53
2022-08-01T02:14:36.985Z,100084.91
2022-08-01T02:17:07.287Z,100082.53
2022-08-01T02:19:37.890Z,100081.72
2022-08-01T02:22:18.021Z,100075.31
2022-08-01T02:24:56.381Z,100080.88
2022-08-01T02:27:35.242Z,100076.47
2022-08-01T02:30:15.176Z,100087.66
2022-08-01T02:32:51.196Z,100074.84
2022-08-01T02:35:27.692Z,100075.25
2022-08-01T02:37:58.157Z,100078.09
2022-08-01T02:40:33.796Z,100072.88
2022-08-01T02:43:03.802Z,100071.63
2022-08-01T02:45:32.736Z,100082.44
2022-08-01T02:48:13.850Z,100070.06
2022-08-01T02:50:45.255Z,100083.63
2022-08-01T03:12:40.435Z,100078.13
2022-08-01T03:15:10.454Z,100091.38
2022-08-01T03:17:41.164Z,100086.25
2022-08-01T03:20:12.084Z,100077.50
2022-08-01T03:22:42.152Z,100083.50
2022-08-01T03:25:10.216Z,100091.50
2022-08-01T03:27:38.953Z,100086.75
2022-08-01T03:30:07.027Z,100076.00
2022-08-01T03:32:35.091Z,100084.81
2022-08-01T03:35:02.241Z,100091.28
2022-08-01T03:37:35.694Z,100082.91
2022-08-01T03:40:29.509Z,100090.13
2022-08-01T03:43:01.228Z,100087.31
2022-08-01T03:45:35.143Z,100079.31
2022-08-01T03:48:07.787Z,100081.72
2022-08-01T03:50:38.098Z,100079.75
2022-08-01T03:53:08.674Z,100072.97
2022-08-01T03:55:39.133Z,100072.97
2022-08-01T03:58:09.864Z,100068.66
2022-08-01T04:00:41.447Z,100066.31
2022-08-01T04:03:10.117Z,100069.13
2022-08-01T04:05:37.455Z,100078.34
2022-08-01T04:08:04.848Z,100060.66
2022-08-01T04:10:32.151Z,100066.19
2022-08-01T04:13:02.167Z,100069.56
2022-08-01T04:15:29.510Z,100075.16
2022-08-01T04:17:56.441Z,100067.84
2022-08-01T04:20:23.560Z,100063.31
2022-08-01T04:22:50.675Z,100055.72
2022-08-01T04:25:26.982Z,100056.56
2022-08-01T04:27:55.453Z,100055.97
2022-08-01T04:30:27.117Z,100055.63
2022-08-01T04:32:56.462Z,100067.22
2022-08-01T04:36:02.888Z,100065.31
2022-08-01T04:38:18.207Z,100066.94
2022-08-01T04:40:47.289Z,100068.22
2022-08-01T04:43:15.032Z,100065.75
2022-08-01T04:45:44.935Z,100068.56
2022-08-01T04:48:14.115Z,100060.63
2022-08-01T04:50:43.022Z,100062.75
2022-08-01T04:53:18.599Z,100056.38
2022-08-01T04:55:48.843Z,100049.50
2022-08-01T04:58:18.675Z,100055.81
2022-08-01T05:00:46.817Z,100056.78
2022-08-01T05:03:14.038Z,100059.53
2022-08-01T05:05:41.329Z,100060.88
2022-08-01T05:08:08.559Z,100065.13
2022-08-01T05:10:35.936Z,100062.63
2022-08-01T05:13:02.983Z,100056.34
2022-08-01T05:15:30.099Z,100059.16
2022-08-01T05:17:57.805Z,100056.91
2022-08-01T05:20:24.884Z,100064.97
2022-08-01T05:22:51.819Z,100062.66
2022-08-01T05:25:20.413Z,100060.50
2022-08-01T05:27:57.329Z,100067.50
2022-08-01T05:30:24.526Z,100059.50
2022-08-01T05:32:51.458Z,100065.66
2022-08-01T05:35:18.479Z,100069.31
2022-08-01T05:37:45.389Z,100058.38
2022-08-01T05:40:12.866Z,100059.59
2022-08-01T05:42:39.786Z,100063.44
2022-08-01T05:45:07.281Z,100061.81
2022-08-01T05:47:34.173Z,100061.56
2022-08-01T05:50:01.089Z,100060.09
2022-08-01T05:52:28.105Z,100055.88
2022-08-01T05:54:54.989Z,100052.59
2022-08-01T05:57:22.030Z,100054.91
2022-08-01T05:59:49.600Z,100057.34
2022-08-01T06:02:16.601Z,100052.97
2022-08-01T06:04:43.635Z,100050.97
2022-08-01T06:07:10.541Z,100045.06
2022-08-01T06:09:37.504Z,100041.72
2022-08-01T06:12:05.172Z,100034.97
2022-08-01T06:14:32.282Z,100041.91
2022-08-01T06:16:59.490Z,100036.81
2022-08-01T06:19:27.421Z,100037.25
2022-08-01T06:21:54.399Z,100039.88
2022-08-01T06:24:23.865Z,100031.94
2022-08-01T06:26:51.138Z,100035.44
2022-08-01T06:29:18.225Z,100032.50
2022-08-01T06:31:45.089Z,100033.25
2022-08-01T06:34:12.076Z,100026.31
2022-08-01T06:36:39.023Z,100029.34
2022-08-01T06:39:06.003Z,100028.22
2022-08-01T06:41:32.985Z,100024.56
2022-08-01T06:44:03.412Z,100032.81
2022-08-01T06:46:32.393Z,100028.28
2022-08-01T06:48:59.861Z,100019.34
2022-08-01T06:51:27.133Z,100023.53
2022-08-01T06:53:54.812Z,100018.06
2022-08-01T06:56:21.808Z,100016.16
2022-08-01T06:58:50.001Z,100017.34
2022-08-01T07:01:17.043Z,100015.84
2022-08-01T07:03:54.693Z,100019.03
2022-08-01T07:06:26.537Z,100025.91
2022-08-01T07:08:54.504Z,100019.31
2022-08-01T07:11:23.056Z,100026.50
2022-08-01T07:13:49.945Z,100017.69
2022-08-01T07:16:17.662Z,100015.47
2022-08-01T07:18:45.116Z,100018.16
2022-08-01T07:21:39.171Z,100022.31
2022-08-01T07:23:59.252Z,100024.94
2022-08-01T07:26:28.486Z,100038.44
2022-08-01T07:28:56.156Z,100044.41
2022-08-01T07:31:24.110Z,100049.19
2022-08-01T07:33:52.244Z,100040.78
2022-08-01T07:36:19.711Z,100057.47
2022-08-01T07:38:47.171Z,100054.88
2022-08-01T07:41:14.704Z,100048.81
2022-08-01T07:43:45.547Z,100056.00
2022-08-01T07:46:20.194Z,100057.03
2022-08-01T07:48:47.311Z,100044.72
2022-08-01T07:51:14.452Z,100047.81
2022-08-01T07:53:41.438Z,100046.19
2022-08-01T07:56:08.408Z,100046.03
2022-08-01T07:58:35.569Z,100054.41
2022-08-01T08:01:02.612Z,100049.19
2022-08-01T08:03:29.631Z,100059.56
2022-08-01T08:05:59.659Z,100054.25
2022-08-01T08:08:28.542Z,100054.97
2022-08-01T08:10:55.545Z,100043.88
2022-08-01T08:13:23.010Z,100052.56
2022-08-01T08:15:49.965Z,100049.72
2022-08-01T08:18:17.334Z,100048.53
2022-08-01T08:20:45.074Z,100051.22
2022-08-01T08:23:41.966Z,100051.25
2022-08-01T08:26:10.802Z,100048.13
2022-08-01T08:28:37.765Z,100054.59
2022-08-01T08:31:04.762Z,100053.13
2022-08-01T08:33:32.637Z,100059.94
2022-08-01T08:35:59.579Z,100056.53
2022-08-01T08:38:30.018Z,100064.56
2022-08-01T08:40:58.386Z,100060.75
2022-08-01T08:43:27.230Z,100054.72
2022-08-01T08:45:58.813Z,100060.59
2022-08-01T08:48:27.953Z,100062.25
2022-08-01T08:50:56.515Z,100067.47
2022-08-01T08:53:24.014Z,100061.09
2022-08-01T08:55:56.289Z,100055.00
2022-08-01T08:58:30.456Z,100062.75
2022-08-01T09:00:59.615Z,100058.03
2022-08-01T09:03:26.627Z,100055.28
2022-08-01T09:05:54.215Z,100054.03
2022-08-01T09:08:21.167Z,100047.09
2022-08-01T09:10:48.302Z,100047.34
2022-08-01T09:13:16.169Z,100042.44
2022-08-01T09:15:55.105Z,100048.88
2022-08-01T09:18:53.360Z,100036.88
2022-08-01T09:21:24.127Z,100028.75
2022-08-01T09:23:56.170Z,100038.13
2022-08-01T09:26:31.909Z,100033.38
2022-08-01T09:29:02.976Z,100041.00
2022-08-01T09:31:38.291Z,100039.38
2022-08-01T09:34:06.242Z,100037.59
2022-08-01T09:37:07.786Z,100038.06
2022-08-01T09:39:38.746Z,100037.38
2022-08-01T09:42:29.225Z,100034.84
2022-08-01T09:44:56.997Z,100033.06
2022-08-01T09:47:39.120Z,100030.31
2022-08-01T09:50:10.761Z,100031.47
2022-08-01T09:52:38.253Z,100031.44
2022-08-01T09:55:08.731Z,100033.66
2022-08-01T09:57:35.837Z,100025.59
2022-08-01T10:00:04.906Z,100040.84
2022-08-01T10:02:41.820Z,100031.72
2022-08-01T10:05:20.833Z,100042.31
2022-08-01T10:08:07.595Z,100043.41
2022-08-01T10:10:37.340Z,100039.34
2022-08-01T10:13:05.426Z,100045.13
2022-08-01T10:15:37.124Z,100027.69
2022-08-01T10:18:16.223Z,100027.50
2022-08-01T10:20:48.489Z,100028.78
2022-08-01T10:23:16.133Z,100034.91
2022-08-01T10:25:47.067Z,100026.53
2022-08-01T10:28:24.188Z,100025.88
2022-08-01T10:30:53.133Z,100041.53
2022-08-01T10:33:51.260Z,100034.06
2022-08-01T10:36:11.123Z,100027.41
2022-08-01T10:38:38.569Z,100032.06
2022-08-01T10:41:08.937Z,100028.03
2022-08-01T10:43:36.975Z,100026.50
2022-08-01T10:46:06.025Z,100033.19
2022-08-01T10:48:46.147Z,100032.66
2022-08-01T10:51:18.217Z,100036.28
2022-08-01T10:53:53.979Z,100037.09
2022-08-01T10:56:39.682Z,100036.13
2022-08-01T10:59:11.607Z,100040.63
2022-08-01T11:01:44.674Z,100035.53
2022-08-01T11:04:17.689Z,100021.03
2022-08-01T11:07:04.367Z,100023.28
2022-08-01T11:09:40.620Z,100025.72
2022-08-01T11:12:23.869Z,100020.56
2022-08-01T11:15:03.115Z,100026.22
2022-08-01T11:17:42.603Z,100015.16
2022-08-01T11:20:15.501Z,100014.13
2022-08-01T11:23:07.023Z,100014.19
2022-08-01T11:26:06.408Z,100015.94
2022-08-01T11:28:34.563Z,100012.13
2022-08-01T11:31:11.951Z,100009.16
2022-08-01T11:33:45.858Z,100016.09
2022-08-01T11:36:55.346Z,100017.09
2022-08-01T11:39:13.546Z,99998.59
2022-08-01T11:41:42.326Z,100007.03
2022-08-01T11:44:14.129Z,100004.75
2022-08-01T11:47:03.213Z,100000.47
2022-08-01T11:49:50.602Z,100006.28
2022-08-01T11:52:27.982Z,100010.41
2022-08-01T11:55:05.685Z,100012.88
2022-08-01T11:57:38.388Z,100005.22
2022-08-01T12:00:16.741Z,100004.28
2022-08-01T12:02:59.114Z,99999.34
2022-08-01T12:05:27.631Z,100005.81
2022-08-01T12:07:56.193Z,100005.25
2022-08-01T12:10:26.566Z,99994.38
2022-08-01T12:12:55.894Z,99998.84
2022-08-01T12:15:25.210Z,99992.72
2022-08-01T12:18:00.826Z,99989.94
2022-08-01T12:20:35.410Z,99980.78
2022-08-01T12:23:06.901Z,99995.56
2022-08-01T12:25:34.772Z,99993.91
2022-08-01T12:28:04.846Z,99986.81
2022-08-01T12:30:32.744Z,99984.69
2022-08-01T12:32:59.703Z,99984.91
2022-08-01T12:35:29.299Z,99983.28
2022-08-01T12:37:58.580Z,99985.28
2022-08-01T12:40:29.709Z,99984.34
2022-08-01T12:43:03.362Z,99975.44
2022-08-01T12:45:56.347Z,99968.09
2022-08-01T12:48:25.906Z,99978.63
2022-08-01T12:50:54.246Z,99976.31
2022-08-01T12:53:22.714Z,99967.41
2022-08-01T12:55:59.596Z,99965.75
2022-08-01T12:58:34.313Z,99969.22
2022-08-01T13:01:07.049Z,99948.94
2022-08-01T13:03:35.444Z,99955.25
2022-08-01T13:06:02.455Z,99964.34
2022-08-01T13:08:34.347Z,99964.25
2022-08-01T13:11:10.855Z,99952.91
2022-08-01T13:13:52.214Z,99946.94
2022-08-01T13:16:31.192Z,99948.09
2022-08-01T13:19:09.092Z,99949.81
2022-08-01T13:21:54.486Z,99964.72
2022-08-01T13:24:29.667Z,99970.97
2022-08-01T13:27:03.619Z,99963.03
2022-08-01T13:29:42.581Z,99958.66
2022-08-01T13:32:29.344Z,99957.75
2022-08-01T13:35:09.015Z,99963.94
2022-08-01T13:37:38.951Z,99969.66
2022-08-01T13:40:08.537Z,99965.84
2022-08-01T13:42:35.953Z,99962.69
2022-08-01T13:45:04.342Z,99962.44
2022-08-01T13:48:03.285Z,99957.22
2022-08-01T13:50:29.152Z,99968.66
2022-08-01T13:52:56.217Z,99977.72
2022-08-01T13:55:23.225Z,99967.94
2022-08-01T13:57:51.212Z,99962.22
2022-08-01T14:00:18.421Z,99962.03
2022-08-01T14:02:45.479Z,99963.31
2022-08-01T14:05:12.549Z,99968.59
2022-08-01T14:07:39.588Z,99966.03
2022-08-01T14:10:18.668Z,99973.19
2022-08-01T14:12:48.757Z,99971.91
2022-08-01T14:15:18.092Z,99954.41
2022-08-01T14:18:06.023Z,99963.03
2022-08-01T14:20:34.463Z,99973.34
2022-08-01T14:23:01.561Z,99978.50
2022-08-01T14:26:00.361Z,99973.28
2022-08-01T14:28:16.221Z,99979.84
2022-08-01T14:30:43.806Z,99978.50
2022-08-01T14:33:12.022Z,99967.09
2022-08-01T14:36:01.626Z,99973.41
2022-08-01T14:38:31.591Z,99985.09
2022-08-01T14:41:00.656Z,99973.63
2022-08-01T14:43:32.844Z,99978.78
2022-08-01T14:46:04.869Z,99979.38
2022-08-01T14:48:32.726Z,99974.63
2022-08-01T14:51:03.496Z,99972.84
2022-08-01T14:53:31.801Z,99976.56
2022-08-01T14:56:01.935Z,99978.16
2022-08-01T15:14:33.503Z,99979.53
2022-08-01T15:17:00.438Z,99968.72
2022-08-01T15:19:27.834Z,99972.72
2022-08-01T15:21:54.771Z,99979.19
2022-08-01T15:24:21.829Z,99972.47
2022-08-01T15:26:48.781Z,99981.78
2022-08-01T15:29:16.843Z,99979.06
2022-08-01T15:31:43.865Z,99987.31
2022-08-01T15:34:11.042Z,99981.53
2022-08-01T15:36:38.099Z,99992.78
2022-08-01T15:39:09.859Z,99985.38
2022-08-01T15:41:37.150Z,99991.19
2022-08-01T15:44:04.767Z,100001.13
2022-08-01T15:46:31.935Z,99999.50
2022-08-01T15:49:02.841Z,100003.47
2022-08-01T15:51:30.414Z,100010.53
2022-08-01T15:53:57.743Z,100006.78
2022-08-01T15:56:25.344Z,100010.84
2022-08-01T15:58:52.349Z,100010.06
2022-08-01T16:01:19.480Z,100017.47
2022-08-01T16:03:46.476Z,100024.06
2022-08-01T16:06:13.476Z,100029.56
2022-08-01T16:08:40.575Z,100037.47
2022-08-01T16:11:07.574Z,100029.66
2022-08-01T16:13:34.546Z,100022.28
2022-08-01T16:16:03.519Z,100023.34
2022-08-01T16:18:30.794Z,100028.88
2022-08-01T16:21:00.784Z,100025.75
2022-08-01T16:23:28.095Z,100040.53
2022-08-01T16:25:55.198Z,100032.44
2022-08-01T16:28:22.372Z,100034.19
2022-08-01T16:31:16.108Z,100038.09
2022-08-01T16:33:53.219Z,100041.66
2022-08-01T16:36:21.973Z,100041.72
2022-08-01T16:38:51.822Z,100033.84
2022-08-01T16:41:19.475Z,100049.28
2022-08-01T16:43:53.082Z,100054.72
2022-08-01T16:46:22.869Z,100047.28
2022-08-01T16:48:50.030Z,100053.16
2022-08-01T16:51:17.173Z,100063.47
2022-08-01T16:53:44.359Z,100070.13
2022-08-01T16:56:11.483Z,100070.19
2022-08-01T16:58:38.485Z,100064.19
2022-08-01T17:02:01.196Z,100077.19
2022-08-01T17:03:54.859Z,100077.94
2022-08-01T17:06:25.511Z,100078.66
2022-08-01T17:08:52.410Z,100080.88
2022-08-01T17:11:19.463Z,100081.19
2022-08-01T17:13:46.606Z,100091.47
2022-08-01T17:16:13.818Z,100075.47
2022-08-01T17:18:40.924Z,100088.44
2022-08-01T17:21:08.056Z,100094.09
2022-08-01T17:23:35.905Z,100090.28
2022-08-01T17:26:03.117Z,100086.34
2022-08-01T17:28:30.192Z,100086.88
2022-08-01T17:30:57.435Z,100093.81
2022-08-01T17:33:24.493Z,100096.81
2022-08-01T17:36:11.592Z,100089.25
2022-08-01T17:38:38.544Z,100078.53
2022-08-01T17:41:05.533Z,100094.47
2022-08-01T17:43:32.483Z,100089.84
2022-08-01T17:45:59.524Z,100099.28
2022-08-01T17:48:28.275Z,100105.56
2022-08-01T17:50:55.465Z,100103.56
2022-08-01T17:53:24.069Z,100118.50
2022-08-01T17:55:56.192Z,100126.72
2022-08-01T17:58:49.694Z,100115.75
2022-08-01T18:01:18.293Z,100123.06
2022-08-01T18:03:46.179Z,100128.41
2022-08-01T18:06:19.416Z,100124.97
2022-08-01T18:08:47.779Z,100134.78
2022-08-01T18:11:15.877Z,100132.88
2022-08-01T18:13:43.454Z,100132.50
2022-08-01T18:16:13.314Z,100141.38
2022-08-01T18:18:43.811Z,100138.78
2022-08-01T18:21:12.536Z,100147.56
2022-08-01T18:23:39.657Z,100152.56
2022-08-01T18:26:08.469Z,100156.16
2022-08-01T18:28:46.301Z,100173.94
2022-08-01T18:31:16.707Z,100170.28
2022-08-01T18:33:44.169Z,100167.88
2022-08-01T18:36:31.443Z,100179.91
2022-08-01T18:38:59.532Z,100181.22
2022-08-01T18:41:26.893Z,100179.34
2022-08-01T18:44:05.677Z,100185.03
2022-08-01T18:46:39.015Z,100189.69
2022-08-01T18:49:07.960Z,100190.19
2022-08-01T18:51:40.140Z,100202.38
2022-08-01T18:54:07.634Z,100208.34
2022-08-01T18:56:35.084Z,100201.75
2022-08-01T18:59:02.144Z,100208.06
2022-08-01T19:01:29.221Z,100204.22
2022-08-01T19:03:56.231Z,100209.75
2022-08-01T19:06:24.669Z,100210.28
2022-08-01T19:08:55.675Z,100217.28
2022-08-01T19:11:24.226Z,100215.00
2022-08-01T19:13:51.438Z,100226.28
2022-08-01T19:16:19.145Z,100225.91
2022-08-01T19:18:46.515Z,100222.63
2022-08-01T19:21:15.570Z,100219.66
2022-08-01T19:24:01.030Z,100220.94
2022-08-01T19:26:28.196Z,100234.28
2022-08-01T19:29:01.376Z,100231.13
2022-08-01T19:31:29.794Z,100229.16
2022-08-01T19:33:57.959Z,100235.16
2022-08-01T19:36:25.273Z,100240.44
2022-08-01T19:38:52.435Z,100232.00
2022-08-01T19:41:22.041Z,100236.34
2022-08-01T19:43:50.979Z,100238.88
2022-08-01T19:46:19.965Z,100243.31
2022-08-01T19:48:53.569Z,100238.06
2022-08-01T19:51:33.382Z,100238.78
2022-08-01T19:54:05.384Z,100243.25
2022-08-01T19:56:40.534Z,100241.28
2022-08-01T19:59:08.805Z,100230.75
2022-08-01T20:01:37.077Z,100233.94
2022-08-01T20:04:04.965Z,100246.38
2022-08-01T20:06:33.370Z,100236.31
2022-08-01T20:09:01.395Z,100236.66
2022-08-01T20:11:28.798Z,100237.41
2022-08-01T20:13:57.440Z,100235.41
2022-08-01T20:16:25.350Z,100233.03
2022-08-01T20:18:52.504Z,100235.56
2022-08-01T20:21:20.084Z,100231.47
2022-08-01T20:23:48.077Z,100232.75
2022-08-01T20:26:17.858Z,100234.78
2022-08-01T20:28:49.541Z,100231.31
2022-08-01T20:31:17.206Z,100224.53
2022-08-01T20:33:47.534Z,100226.19
2022-08-01T20:36:25.682Z,100231.78
2022-08-01T20:38:55.425Z,100226.25
2022-08-01T20:41:28.449Z,100227.88
2022-08-01T20:43:57.369Z,100231.19
2022-08-01T20:46:28.603Z,100226.78
2022-08-01T20:48:58.553Z,100224.78
2022-08-01T20:51:27.032Z,100230.72
2022-08-01T20:53:56.124Z,100241.69
2022-08-01T20:56:32.291Z,100238.94
2022-08-01T20:59:06.361Z,100234.56
2022-08-01T21:01:54.742Z,100231.88
2022-08-01T21:04:46.985Z,100230.63
2022-08-01T21:07:24.588Z,100230.22
2022-08-01T21:09:58.651Z,100233.03
2022-08-01T21:12:28.203Z,100232.28
2022-08-01T21:15:01.552Z,100229.44
2022-08-01T21:17:54.943Z,100223.56
2022-08-01T21:20:22.844Z,100238.03
2022-08-01T21:22:59.538Z,100228.75
2022-08-01T21:25:33.062Z,100226.06
2022-08-01T21:28:04.054Z,100229.34
2022-08-01T21:30:32.997Z,100231.72
2022-08-01T21:33:01.028Z,100234.88
2022-08-01T21:35:28.358Z,100230.44
2022-08-01T21:37:58.494Z,100233.28
2022-08-01T21:40:25.994Z,100227.28
2022-08-01T21:42:54.892Z,100225.63
2022-08-01T21:45:26.078Z,100234.97
2022-08-01T21:47:54.522Z,100233.41
2022-08-01T21:50:22.278Z,100229.41
2022-08-01T21:53:32.054Z,100234.28
2022-08-01T21:56:14.816Z,100226.31
2022-08-01T21:58:54.905Z,100225.47
2022-08-01T22:01:32.479Z,100226.31
2022-08-01T22:04:02.864Z,100224.34
2022-08-01T22:06:34.824Z,100226.34
2022-08-01T22:09:06.141Z,100236.81
2022-08-01T22:11:36.079Z,100235.59
2022-08-01T22:14:06.319Z,100237.59
2022-08-01T22:16:34.749Z,100234.81
2022-08-01T22:19:02.566Z,100234.78
2022-08-01T22:21:30.591Z,100236.03
2022-08-01T22:23:59.255Z,100224.00
2022-08-01T22:26:29.521Z,100234.84
2022-08-01T22:28:56.850Z,100236.91
2022-08-01T22:31:24.349Z,100237.69
2022-08-01T22:33:52.064Z,100234.09
2022-08-01T22:36:20.345Z,100236.47
2022-08-01T22:38:47.588Z,100230.50
2022-08-01T22:41:21.593Z,100242.16
2022-08-01T22:44:03.713Z,100244.59
2022-08-01T22:46:46.210Z,100237.34
2022-08-01T22:49:37.641Z,100238.19
2022-08-01T22:52:12.235Z,100240.97
2022-08-01T22:54:41.812Z,100245.00
2022-08-01T22:57:19.821Z,100246.63
2022-08-01T23:00:02.587Z,100240.59
2022-08-01T23:02:31.991Z,100249.00
2022-08-01T23:05:08.314Z,100243.41
2022-08-01T23:07:50.135Z,100243.81
2022-08-01T23:10:20.379Z,100239.00
2022-08-01T23:12:50.440Z,100243.00
2022-08-01T23:15:18.354Z,100240.22
2022-08-01T23:17:47.868Z,100251.41
2022-08-01T23:20:16.140Z,100253.03
2022-08-01T23:22:44.171Z,100253.03
2022-08-01T23:25:14.633Z,100253.03
2022-08-01T23:28:03.690Z,100251.84
2022-08-01T23:30:35.408Z,100255.84
2022-08-01T23:33:03.218Z,100256.66
2022-08-01T23:35:30.941Z,100261.84
2022-08-01T23:38:02.429Z,100253.41
2022-08-01T23:40:34.563Z,100249.81
2022-08-01T23:43:03.466Z,100253.03
2022-08-01T23:46:01.862Z,100250.59
2022-08-01T23:48:18.589Z,100248.63
2022-08-01T23:50:45.584Z,100241.81
2022-08-01T23:53:12.997Z,100240.19
2022-08-01T23:55:44.049Z,100246.22
2022-08-01T23:58:11.652Z,100251.03
